Colby, KS

5:55 PM CST on November 19, 2019 (GMT -0600)
Shaltz

Weather History for KCBK - September, 2019

Change the Weather History Date:

Friday, September 20, 2019

  Actual Average (WUND) Record (WUND)
Temperature  
Mean Temperature 74 °F -  
Max Temperature 86 °F - - (-1)
Min Temperature 62 °F - - (-1)
Cooling Degree Days 9    
Growing Degree Days 24 (Base 50)    
Moisture  
Dew Point 56 °F    
Average Humidity 62    
Maximum Humidity 94    
Minimum Humidity 29    
Precipitation  
Precipitation 0.00 in - - ()
Sea Level Pressure  
Sea Level Pressure 29.88 in    
Wind  
Wind Speed 16 mph (SSE)    
Max Wind Speed 28 mph    
Max Gust Speed 34 mph    
Visibility 10 miles    
Events      
Averages and records for this station are not official NWS values.
T = Trace of Precipitation, MM = Missing Value Source: NWS Daily Summary

Daily Weather History Graph

Daily Weather History Graph

Search for Another Location

Airport or City:

Astronomy

Sep. 20, 2019 Rise Set
Actual Time 7:29 AM CDT 7:44 PM CDT
Civil Twilight 7:02 AM CDT 8:11 PM CDT
Nautical Twilight 6:31 AM CDT 8:43 PM CDT
Astronomical Twilight 5:59 AM CDT 9:14 PM CDT
Moon 11:37 PM CDT (9/20) 1:34 PM CDT (9/20)
Length of Visible Light 13h 08m
Length of Day
12h 14m
Waning Gibbous, 65% of the Moon is Illuminated
Sep 20
Waning Gibbous
Sep 21
Last Quarter
Sep 28
New
Oct 5
First Quarter
Oct 13
Full

Hourly Weather History & Observations

Time (CDT) Temp. Heat Index Dew Point Humidity Pressure Visibility Wind Dir Wind Speed Gust Speed Precip Events Conditions
12:15 AM 66.2 °F - 55.4 °F 68% 29.98 in 10.0 mi South 12.7 mph - N/A   Clear
12:35 AM 64.4 °F - 55.4 °F 73% 29.97 in 10.0 mi SSW 5.8 mph - N/A   Clear
12:55 AM 62.6 °F - 55.4 °F 77% 29.96 in 10.0 mi SSW 8.1 mph - N/A   Clear
1:15 AM 64.4 °F - 55.4 °F 73% 29.95 in 10.0 mi SSW 10.4 mph - N/A   Clear
1:35 AM 64.4 °F - 55.4 °F 73% 29.94 in 10.0 mi South 11.5 mph - N/A   Clear
1:55 AM 64.4 °F - 55.4 °F 73% 29.93 in 10.0 mi South 11.5 mph 18.4 mph N/A   Clear
2:15 AM 66.2 °F - 55.4 °F 68% 29.94 in 10.0 mi South 10.4 mph 19.6 mph N/A   Clear
2:35 AM 66.2 °F - 57.2 °F 73% 29.94 in 10.0 mi South 12.7 mph 16.1 mph N/A   Clear
2:55 AM 66.2 °F - 59.0 °F 78% 29.93 in 10.0 mi South 12.7 mph 16.1 mph N/A   Clear
3:15 AM 64.4 °F - 59.0 °F 83% 29.93 in 10.0 mi South 16.1 mph 20.7 mph N/A   Clear
3:35 AM 64.4 °F - 60.8 °F 88% 29.93 in 10.0 mi South 17.3 mph 20.7 mph N/A   Clear
3:55 AM 64.4 °F - 60.8 °F 88% 29.93 in 10.0 mi South 16.1 mph 21.9 mph N/A   Clear
4:15 AM 64.4 °F - 60.8 °F 88% 29.92 in 10.0 mi South 15.0 mph 19.6 mph N/A   Clear
4:35 AM 64.4 °F - 60.8 °F 88% 29.92 in 10.0 mi South 15.0 mph - N/A   Clear
5:15 AM 64.4 °F - 60.8 °F 88% 29.93 in 10.0 mi South 12.7 mph 18.4 mph N/A   Clear
5:35 AM 64.4 °F - 60.8 °F 88% 29.93 in 10.0 mi South 13.8 mph 17.3 mph N/A   Clear
5:55 AM 62.6 °F - 60.8 °F 94% 29.93 in 10.0 mi South 12.7 mph - N/A   Clear
6:15 AM 62.6 °F - 60.8 °F 94% 29.93 in 10.0 mi SSE 16.1 mph - N/A   Clear
6:35 AM 62.6 °F - 59.0 °F 88% 29.92 in 10.0 mi South 20.7 mph 27.6 mph N/A   Clear
6:55 AM 64.4 °F - 59.0 °F 83% 29.92 in 10.0 mi SSE 15.0 mph - N/A   Clear
7:15 AM 62.6 °F - 57.2 °F 82% 29.91 in 10.0 mi SSE 16.1 mph 20.7 mph N/A   Clear
7:35 AM 62.6 °F - 55.4 °F 77% 29.91 in 10.0 mi SSE 18.4 mph 28.8 mph N/A   Clear
7:55 AM 62.6 °F - 55.4 °F 77% 29.92 in 10.0 mi South 16.1 mph - N/A   Clear
8:15 AM 62.6 °F - 55.4 °F 77% 29.92 in 10.0 mi South 13.8 mph - N/A   Clear
8:35 AM 62.6 °F - 59.0 °F 88% 29.92 in 10.0 mi SSE 15.0 mph 18.4 mph N/A   Clear
8:55 AM 62.6 °F - 59.0 °F 88% 29.92 in 10.0 mi SSE 15.0 mph - N/A   Clear
9:15 AM 64.4 °F - 59.0 °F 83% 29.93 in 10.0 mi SSE 17.3 mph 24.2 mph N/A   Clear
9:35 AM 64.4 °F - 59.0 °F 83% 29.93 in 10.0 mi South 13.8 mph 20.7 mph N/A   Clear
9:55 AM 66.2 °F - 59.0 °F 78% 29.94 in 10.0 mi South 17.3 mph 23.0 mph N/A   Clear
10:15 AM 69.8 °F - 59.0 °F 68% 29.94 in 10.0 mi South 17.3 mph 27.6 mph N/A   Clear
10:35 AM 69.8 °F - 59.0 °F 68% 29.94 in 10.0 mi South 17.3 mph 26.5 mph N/A   Clear
10:55 AM 71.6 °F - 57.2 °F 60% 29.93 in 10.0 mi SSE 20.7 mph 27.6 mph N/A   Clear
11:15 AM 71.6 °F - 57.2 °F 60% 29.93 in 10.0 mi South 18.4 mph 26.5 mph N/A   Scattered Clouds
11:35 AM 73.4 °F - 57.2 °F 57% 29.92 in 10.0 mi South 18.4 mph 24.2 mph N/A   Scattered Clouds
11:55 AM 77.0 °F - 55.4 °F 47% 29.92 in 10.0 mi South 23.0 mph 28.8 mph N/A   Scattered Clouds
12:15 PM 77.0 °F - 53.6 °F 44% 29.91 in 10.0 mi South 24.2 mph 29.9 mph N/A   Scattered Clouds
12:35 PM 75.2 °F - 53.6 °F 47% 29.91 in 10.0 mi South 19.6 mph 28.8 mph N/A   Mostly Cloudy
12:55 PM 77.0 °F - 53.6 °F 44% 29.89 in 10.0 mi SSE 19.6 mph 27.6 mph N/A   Mostly Cloudy
1:15 PM 80.6 °F 80.5 °F 55.4 °F 42% 29.88 in 10.0 mi SSE 23.0 mph - N/A   Scattered Clouds
1:35 PM 80.6 °F 80.5 °F 55.4 °F 42% 29.88 in 10.0 mi South 21.9 mph 28.8 mph N/A   Clear
1:55 PM 80.6 °F 80.3 °F 53.6 °F 39% 29.87 in 10.0 mi SSE 23.0 mph 31.1 mph N/A   Clear
2:15 PM 82.4 °F 81.4 °F 53.6 °F 37% 29.86 in 10.0 mi SSE 21.9 mph 26.5 mph N/A   Clear
2:35 PM 84.2 °F 82.8 °F 53.6 °F 35% 29.85 in 10.0 mi South 24.2 mph 33.4 mph N/A   Clear
2:55 PM 86.0 °F 84.2 °F 53.6 °F 33% 29.84 in 10.0 mi South 25.3 mph 32.2 mph N/A   Clear
3:15 PM 84.2 °F 82.8 °F 53.6 °F 35% 29.83 in 10.0 mi SSE 24.2 mph 34.5 mph N/A   Clear
3:35 PM 86.0 °F - 51.8 °F 31% 29.82 in 10.0 mi South 20.7 mph 33.4 mph N/A   Clear
3:55 PM 84.2 °F - 51.8 °F 33% 29.82 in 10.0 mi SSE 23.0 mph 31.1 mph N/A   Clear
4:15 PM 84.2 °F - 50.0 °F 30% 29.82 in 10.0 mi SSE 21.9 mph 33.4 mph N/A   Clear
4:35 PM 84.2 °F - 51.8 °F 33% 29.81 in 10.0 mi SSE 23.0 mph 27.6 mph N/A   Clear
4:55 PM 86.0 °F - 50.0 °F 29% 29.80 in 10.0 mi SSE 19.6 mph 29.9 mph N/A   Clear
5:15 PM 84.2 °F - 51.8 °F 33% 29.80 in 10.0 mi SSE 24.2 mph 31.1 mph N/A   Clear
5:35 PM 84.2 °F - 51.8 °F 33% 29.79 in 10.0 mi SSE 24.2 mph 32.2 mph N/A   Clear
5:55 PM 82.4 °F - 51.8 °F 35% 29.79 in 10.0 mi SE 26.5 mph 31.1 mph N/A   Scattered Clouds
6:15 PM 80.6 °F 80.3 °F 53.6 °F 39% 29.80 in 10.0 mi SSE 21.9 mph 34.5 mph N/A   Clear
6:35 PM 80.6 °F 80.3 °F 53.6 °F 39% 29.81 in 10.0 mi SSE 26.5 mph 31.1 mph N/A   Scattered Clouds
6:55 PM 78.8 °F - 55.4 °F 44% 29.81 in 10.0 mi SSE 20.7 mph 26.5 mph N/A   Clear
7:15 PM 77.0 °F - 55.4 °F 47% 29.81 in 10.0 mi SSE 27.6 mph 32.2 mph N/A   Clear
7:35 PM 77.0 °F - 55.4 °F 47% 29.81 in 10.0 mi SSE 19.6 mph 29.9 mph N/A   Clear
7:55 PM 73.4 °F - 55.4 °F 53% 29.81 in 10.0 mi SE 17.3 mph - N/A   Clear
8:15 PM 73.4 °F - 55.4 °F 53% 29.81 in 10.0 mi SE 16.1 mph - N/A   Clear
8:35 PM 71.6 °F - 55.4 °F 57% 29.81 in 10.0 mi SE 16.1 mph 23.0 mph N/A   Clear
8:55 PM 71.6 °F - 57.2 °F 60% 29.82 in 10.0 mi SE 17.3 mph - N/A   Clear
9:15 PM 71.6 °F - 57.2 °F 60% 29.82 in 10.0 mi SSE 17.3 mph 24.2 mph N/A   Clear
9:35 PM 71.6 °F - 57.2 °F 60% 29.82 in 10.0 mi SSE 19.6 mph 25.3 mph N/A   Clear
9:55 PM 71.6 °F - 59.0 °F 64% 29.83 in 10.0 mi SSE 20.7 mph 25.3 mph N/A   Clear
10:15 PM 71.6 °F - 59.0 °F 64% 29.83 in 10.0 mi SSE 20.7 mph 24.2 mph N/A   Clear
10:35 PM 71.6 °F - 59.0 °F 64% 29.83 in 10.0 mi SSE 21.9 mph 27.6 mph N/A   Clear
10:55 PM 71.6 °F - 59.0 °F 64% 29.83 in 10.0 mi SSE 19.6 mph 27.6 mph N/A   Clear
11:15 PM 71.6 °F - 59.0 °F 64% 29.84 in 10.0 mi South 23.0 mph 31.1 mph N/A   Clear
11:35 PM 69.8 °F - 60.8 °F 73% 29.83 in 10.0 mi South 21.9 mph 29.9 mph N/A   Clear
11:55 PM 69.8 °F - 60.8 °F 73% 29.84 in 10.0 mi South 23.0 mph 31.1 mph N/A   Clear